Time;durP1;ratioP1;P1;durP2;ratioP2;P2;SDS_P1;SDS_P2;PMS_P1;PMS_P2;Temp;Humidity;BMP_temperature;BMP_pressure;BME280_temperature;BME280_humidity;BME280_pressure;Samples;Min_cycle;Max_cycle;Signal;HPM_P1;HPM_P2
2023/10/22 00:00:08;;;;;;;0.50;0.50;;;21.90;60.90;;;;;;5092243;28;20040;-39
2023/10/22 00:02:35;;;;;;;0.70;0.60;;;21.90;60.90;;;;;;5093347;28;20111;-40
2023/10/22 00:05:05;;;;;;;0.88;0.70;;;21.90;60.90;;;;;;5094869;28;20544;-40
2023/10/22 00:07:32;;;;;;;0.85;0.75;;;21.90;60.90;;;;;;5101035;28;20118;-39
2023/10/22 00:09:58;;;;;;;1.35;0.68;;;21.80;60.90;;;;;;5087878;28;20035;-39
2023/10/22 00:12:24;;;;;;;1.05;0.68;;;21.80;60.90;;;;;;5101960;28;20035;-40
2023/10/22 00:14:50;;;;;;;1.00;0.60;;;21.80;61.00;;;;;;5091812;28;20063;-40
2023/10/22 00:17:17;;;;;;;1.05;0.60;;;21.80;61.00;;;;;;5101418;28;20044;-39
2023/10/22 00:19:43;;;;;;;0.75;0.68;;;21.80;61.00;;;;;;5097943;28;20194;-40
2023/10/22 00:22:12;;;;;;;0.43;0.43;;;21.70;61.00;;;;;;5097323;28;20063;-40
2023/10/22 00:24:39;;;;;;;0.98;0.63;;;21.80;61.20;;;;;;5097601;28;20126;-40
2023/10/22 00:27:05;;;;;;;0.88;0.70;;;21.70;61.00;;;;;;5102114;28;20028;-40
2023/10/22 00:29:32;;;;;;;1.40;0.65;;;21.70;61.00;;;;;;5099362;28;20062;-40
2023/10/22 00:31:58;;;;;;;1.00;0.80;;;21.70;61.10;;;;;;5085875;28;20036;-40
2023/10/22 00:34:24;;;;;;;0.63;0.63;;;21.70;61.00;;;;;;5095378;28;20040;-40
2023/10/22 00:36:50;;;;;;;0.85;0.70;;;21.70;61.20;;;;;;5091213;28;20096;-40
2023/10/22 00:39:16;;;;;;;0.75;0.55;;;21.70;61.20;;;;;;5089072;28;20040;-40
2023/10/22 00:41:42;;;;;;;1.60;0.80;;;21.60;61.10;;;;;;5096352;28;20518;-40
2023/10/22 00:44:08;;;;;;;0.60;0.60;;;21.60;61.10;;;;;;5089059;28;20048;-40
2023/10/22 00:46:35;;;;;;;0.73;0.60;;;21.60;61.00;;;;;;5090471;28;20024;-40
2023/10/22 00:49:01;;;;;;;0.90;0.80;;;21.60;61.10;;;;;;5090805;28;20016;-40
2023/10/22 00:51:27;;;;;;;0.70;0.60;;;21.50;61.10;;;;;;5087099;28;20083;-39
2023/10/22 00:53:53;;;;;;;1.30;0.80;;;21.50;61.10;;;;;;5096337;28;20025;-39
2023/10/22 00:56:20;;;;;;;0.80;0.70;;;21.50;61.10;;;;;;5096625;28;20028;-39
2023/10/22 00:58:47;;;;;;;0.85;0.60;;;21.50;61.20;;;;;;5090135;28;20028;-39
2023/10/22 01:01:13;;;;;;;1.25;0.60;;;21.50;61.20;;;;;;5101774;28;20035;-40
2023/10/22 01:03:39;;;;;;;0.77;0.68;;;21.50;61.20;;;;;;5084555;28;20043;-39
2023/10/22 01:06:06;;;;;;;0.93;0.70;;;21.50;61.30;;;;;;5095865;28;20030;-39
2023/10/22 01:08:33;;;;;;;0.60;0.57;;;21.50;61.20;;;;;;5101779;28;20489;-38
2023/10/22 01:11:05;;;;;;;;;;;21.50;61.30;;;;;;5084575;28;20032;-40
2023/10/22 01:13:31;;;;;;;1.00;0.80;;;21.40;61.20;;;;;;5090481;28;19912;-40
2023/10/22 01:15:58;;;;;;;1.10;0.73;;;21.40;61.30;;;;;;5096711;28;20040;-40
2023/10/22 01:18:24;;;;;;;2.25;0.80;;;21.40;61.40;;;;;;5097504;28;20086;-40
2023/10/22 01:20:50;;;;;;;0.80;0.70;;;21.40;61.50;;;;;;5084607;28;20039;-39
2023/10/22 01:23:17;;;;;;;1.15;0.80;;;21.40;61.60;;;;;;5097195;28;20544;-40
2023/10/22 01:25:43;;;;;;;0.80;0.80;;;21.30;61.60;;;;;;5086564;28;20095;-40
2023/10/22 01:28:09;;;;;;;0.95;0.80;;;21.30;61.70;;;;;;5096479;28;20119;-39
2023/10/22 01:30:35;;;;;;;1.10;0.70;;;21.30;61.80;;;;;;5085020;28;20033;-39
2023/10/22 01:33:01;;;;;;;0.80;0.70;;;21.30;61.90;;;;;;5098218;28;20032;-39
2023/10/22 01:35:27;;;;;;;1.27;0.82;;;21.30;61.80;;;;;;5091004;28;20033;-39
2023/10/22 01:37:53;;;;;;;2.70;1.08;;;21.30;61.90;;;;;;5095244;28;20040;-41
2023/10/22 01:40:20;;;;;;;0.80;0.80;;;21.30;61.90;;;;;;5090087;28;20036;-39
2023/10/22 01:42:46;;;;;;;1.02;0.90;;;21.20;61.90;;;;;;5100196;28;20053;-40
2023/10/22 01:45:12;;;;;;;0.73;0.57;;;21.20;61.90;;;;;;5098319;28;20021;-39
2023/10/22 01:47:38;;;;;;;1.10;1.00;;;21.20;61.90;;;;;;5101967;28;20119;-40
2023/10/22 01:50:06;;;;;;;1.10;0.80;;;21.20;62.00;;;;;;5104768;28;20054;-40
2023/10/22 01:52:32;;;;;;;1.42;0.93;;;21.20;62.10;;;;;;5096734;28;20036;-40
2023/10/22 01:54:59;;;;;;;1.10;1.00;;;21.20;62.10;;;;;;5100087;28;20028;-40
2023/10/22 01:57:25;;;;;;;1.80;1.05;;;21.20;62.10;;;;;;5094024;28;20052;-39
2023/10/22 01:59:51;;;;;;;1.65;0.90;;;21.10;62.10;;;;;;5096767;28;20048;-39
2023/10/22 02:02:17;;;;;;;1.00;0.90;;;21.10;62.10;;;;;;5092949;28;20039;-39
2023/10/22 02:04:44;;;;;;;1.17;0.53;;;21.10;62.10;;;;;;5096258;28;20092;-39
2023/10/22 02:07:10;;;;;;;1.67;0.82;;;21.10;62.20;;;;;;5097837;28;20037;-39
2023/10/22 02:09:37;;;;;;;2.47;1.00;;;21.10;62.20;;;;;;5095537;28;20519;-40
2023/10/22 02:12:04;;;;;;;1.27;1.00;;;21.10;62.30;;;;;;5097833;28;20036;-40
2023/10/22 02:14:30;;;;;;;1.45;0.90;;;21.00;62.20;;;;;;5097581;28;20044;-40
2023/10/22 02:16:56;;;;;;;2.28;1.27;;;21.00;62.20;;;;;;5086864;28;20536;-39
2023/10/22 02:19:22;;;;;;;1.08;0.98;;;21.00;62.30;;;;;;5098378;28;20028;-39
2023/10/22 02:21:48;;;;;;;1.33;1.20;;;21.00;62.30;;;;;;5096298;28;20024;-39
2023/10/22 02:24:14;;;;;;;1.27;0.98;;;21.00;62.40;;;;;;5095501;28;20055;-39
2023/10/22 02:26:41;;;;;;;1.48;1.05;;;21.00;62.40;;;;;;5096484;28;20024;-39
2023/10/22 02:29:08;;;;;;;1.25;0.88;;;20.90;62.30;;;;;;5101942;28;20119;-39
2023/10/22 02:31:34;;;;;;;2.38;1.13;;;20.90;62.40;;;;;;5095580;28;20086;-40
2023/10/22 02:34:07;;;;;;;2.17;1.00;;;20.90;62.40;;;;;;5096292;28;20028;-40
2023/10/22 02:36:33;;;;;;;1.67;1.20;;;20.90;62.40;;;;;;5092148;28;20039;-40
2023/10/22 02:39:00;;;;;;;1.17;1.00;;;20.90;62.50;;;;;;5103399;28;20032;-39
2023/10/22 02:41:28;;;;;;;2.10;1.25;;;20.90;62.50;;;;;;5103412;28;20039;-39
2023/10/22 02:43:55;;;;;;;1.30;1.02;;;20.90;62.50;;;;;;5096137;28;20040;-40
2023/10/22 02:46:21;;;;;;;;;;;20.80;62.50;;;;;;5097215;28;20040;-39
2023/10/22 02:48:47;;;;;;;1.63;1.20;;;20.80;62.50;;;;;;5102464;28;19947;-39
2023/10/22 02:51:14;;;;;;;1.97;1.30;;;20.80;62.50;;;;;;5103436;28;20050;-39
2023/10/22 02:53:40;;;;;;;1.13;1.03;;;20.80;62.50;;;;;;5092802;28;20039;-38
2023/10/22 02:56:07;;;;;;;1.88;1.30;;;20.80;62.60;;;;;;5091487;28;20020;-38
2023/10/22 02:58:33;;;;;;;2.88;1.42;;;20.80;62.60;;;;;;5095086;28;20036;-39
2023/10/22 03:01:09;;;;;;;1.17;1.08;;;20.70;62.60;;;;;;5103187;28;20032;-39
2023/10/22 03:03:39;;;;;;;1.55;1.20;;;20.70;62.60;;;;;;5100060;28;20028;-39
2023/10/22 03:06:07;;;;;;;1.40;1.15;;;20.70;62.60;;;;;;5102902;28;20024;-40
2023/10/22 03:08:34;;;;;;;1.95;1.30;;;20.70;62.70;;;;;;5095055;28;20150;-39
2023/10/22 03:11:00;;;;;;;2.97;1.40;;;20.70;62.70;;;;;;5099315;28;20052;-39
2023/10/22 03:13:27;;;;;;;1.40;1.03;;;20.70;62.70;;;;;;5093244;28;20032;-39
2023/10/22 03:15:53;;;;;;;2.03;1.52;;;20.60;62.70;;;;;;5102041;28;20326;-38
2023/10/22 03:18:20;;;;;;;1.75;1.33;;;20.60;62.80;;;;;;5102675;28;20055;-38
2023/10/22 03:20:46;;;;;;;1.50;1.20;;;20.60;62.80;;;;;;5095417;28;20381;-39
2023/10/22 03:23:12;;;;;;;1.73;1.40;;;20.60;62.80;;;;;;5097461;28;20028;-39
2023/10/22 03:25:39;;;;;;;1.67;1.33;;;20.60;62.80;;;;;;5099409;28;20269;-39
2023/10/22 03:28:06;;;;;;;2.10;1.30;;;20.60;62.80;;;;;;5095278;28;20055;-39
2023/10/22 03:30:37;;;;;;;1.83;1.45;;;20.60;62.80;;;;;;5092912;28;20036;-39
2023/10/22 03:33:03;;;;;;;2.95;1.38;;;20.50;62.90;;;;;;5098626;28;20024;-39
2023/10/22 03:35:29;;;;;;;2.67;1.58;;;20.50;62.90;;;;;;5100581;28;20023;-39
2023/10/22 03:37:56;;;;;;;2.92;1.42;;;20.50;62.80;;;;;;5087259;28;20044;-39
2023/10/22 03:40:22;;;;;;;1.33;1.23;;;20.50;62.90;;;;;;5090965;28;20082;-39
2023/10/22 03:42:49;;;;;;;2.95;1.60;;;20.50;62.90;;;;;;5092261;28;20064;-39
2023/10/22 03:45:15;;;;;;;3.10;1.60;;;20.50;63.00;;;;;;5096778;28;20066;-39
2023/10/22 03:47:41;;;;;;;2.40;1.40;;;20.50;62.90;;;;;;5101761;28;20075;-39
2023/10/22 03:50:08;;;;;;;1.60;1.50;;;20.40;62.90;;;;;;5097232;28;20063;-39
2023/10/22 03:52:34;;;;;;;1.83;1.60;;;20.40;63.00;;;;;;5098979;28;20067;-39
2023/10/22 03:55:00;;;;;;;2.28;1.40;;;20.40;63.00;;;;;;5097121;28;20524;-38
2023/10/22 03:57:26;;;;;;;2.22;1.65;;;20.40;63.00;;;;;;5098778;28;20043;-39
2023/10/22 03:59:52;;;;;;;2.72;1.58;;;20.40;63.00;;;;;;5098959;28;20024;-39
2023/10/22 04:02:18;;;;;;;2.55;1.50;;;20.30;63.10;;;;;;5102015;28;20024;-38
2023/10/22 04:04:44;;;;;;;2.10;1.42;;;20.30;63.00;;;;;;5092111;28;20059;-39
2023/10/22 04:07:11;;;;;;;2.75;1.70;;;20.30;63.10;;;;;;5095327;28;20047;-39
2023/10/22 04:09:37;;;;;;;1.90;1.63;;;20.30;63.10;;;;;;5101008;28;20028;-39
2023/10/22 04:12:04;;;;;;;2.10;1.63;;;20.30;63.10;;;;;;5097677;28;20037;-39
2023/10/22 04:14:32;;;;;;;2.10;1.70;;;20.30;63.10;;;;;;5097658;28;20050;-40
2023/10/22 04:16:58;;;;;;;2.55;1.80;;;20.30;63.20;;;;;;5086601;28;20307;-39
2023/10/22 04:19:24;;;;;;;1.92;1.70;;;20.20;63.10;;;;;;5102148;28;20056;-40
2023/10/22 04:21:51;;;;;;;1.50;1.40;;;20.20;63.20;;;;;;5087228;28;20024;-40
2023/10/22 04:24:17;;;;;;;3.10;1.77;;;20.20;63.20;;;;;;5099303;28;20031;-39
2023/10/22 04:26:43;;;;;;;2.33;1.88;;;20.20;63.30;;;;;;5097418;28;20031;-39
2023/10/22 04:29:09;;;;;;;1.95;1.60;;;20.20;63.30;;;;;;5094923;28;20509;-39
2023/10/22 04:31:36;;;;;;;2.40;1.70;;;20.20;63.30;;;;;;5097729;28;20036;-39
2023/10/22 04:34:02;;;;;;;2.03;1.80;;;20.20;63.30;;;;;;5100625;28;20091;-39
2023/10/22 04:36:28;;;;;;;2.28;1.67;;;20.20;63.30;;;;;;5100596;28;20036;-39
2023/10/22 04:38:54;;;;;;;2.22;2.00;;;20.20;63.40;;;;;;5098272;28;20063;-39
2023/10/22 04:41:20;;;;;;;2.15;1.77;;;20.10;63.30;;;;;;5098377;28;20671;-39
2023/10/22 04:43:46;;;;;;;2.97;1.90;;;20.10;63.30;;;;;;5090583;28;20092;-39
2023/10/22 04:46:13;;;;;;;2.17;1.75;;;20.10;63.40;;;;;;5096104;28;20024;-39
2023/10/22 04:48:40;;;;;;;2.22;2.03;;;20.10;63.40;;;;;;5098768;28;20036;-39
2023/10/22 04:51:06;;;;;;;1.73;1.57;;;20.10;63.40;;;;;;5102142;28;20180;-39
2023/10/22 04:53:36;;;;;;;2.30;1.70;;;20.10;63.40;;;;;;5092380;28;20053;-39
2023/10/22 04:56:03;;;;;;;1.73;1.60;;;20.10;63.40;;;;;;5101550;28;20149;-39
2023/10/22 04:58:30;;;;;;;1.87;1.70;;;20.00;63.40;;;;;;5091738;28;20040;-39
2023/10/22 05:00:56;;;;;;;2.40;2.00;;;20.00;63.40;;;;;;5084269;28;20075;-39
2023/10/22 05:03:23;;;;;;;1.98;1.70;;;20.00;63.40;;;;;;5092883;28;20038;-39
2023/10/22 05:05:49;;;;;;;2.38;2.05;;;20.00;63.50;;;;;;5090382;28;20028;-39
2023/10/22 05:08:15;;;;;;;2.33;1.90;;;20.00;63.50;;;;;;5095666;28;20624;-39
2023/10/22 05:10:41;;;;;;;2.75;2.08;;;20.00;63.50;;;;;;5099687;28;20040;-39
2023/10/22 05:13:10;;;;;;;1.77;1.67;;;20.00;63.60;;;;;;5101501;28;20087;-39
2023/10/22 05:15:37;;;;;;;2.95;1.65;;;19.90;63.50;;;;;;5100552;28;20031;-39
2023/10/22 05:18:07;;;;;;;2.38;1.88;;;19.90;63.60;;;;;;5098246;28;20060;-39
2023/10/22 05:20:34;;;;;;;2.20;1.83;;;19.90;63.60;;;;;;5104450;28;20028;-39
2023/10/22 05:23:03;;;;;;;2.28;2.00;;;19.90;63.60;;;;;;5098166;28;20038;-39
2023/10/22 05:25:29;;;;;;;1.77;1.67;;;19.90;63.60;;;;;;5097762;28;20039;-39
2023/10/22 05:27:55;;;;;;;2.40;1.92;;;19.90;63.60;;;;;;5090880;28;20024;-39
2023/10/22 05:30:21;;;;;;;2.53;2.00;;;19.90;63.70;;;;;;5090127;28;20036;-39
2023/10/22 05:32:47;;;;;;;2.25;2.00;;;19.90;63.70;;;;;;5093844;28;20100;-40
2023/10/22 05:35:13;;;;;;;2.20;1.83;;;19.90;63.80;;;;;;5098155;28;20494;-39
2023/10/22 05:37:46;;;;;;;2.67;2.15;;;19.90;63.90;;;;;;5103611;28;20040;-40
2023/10/22 05:40:14;;;;;;;2.00;1.80;;;19.80;63.80;;;;;;5088539;28;20469;-40
2023/10/22 05:42:40;;;;;;;2.60;1.90;;;19.80;63.80;;;;;;5102856;28;20076;-40
2023/10/22 05:45:07;;;;;;;3.22;1.88;;;19.80;64.60;;;;;;5104183;28;20032;-40
2023/10/22 05:47:33;;;;;;;2.40;2.20;;;19.80;63.80;;;;;;5096625;28;20062;-40
2023/10/22 05:49:59;;;;;;;2.30;2.10;;;19.80;63.90;;;;;;5100941;28;20032;-40
2023/10/22 05:52:26;;;;;;;2.25;1.80;;;19.80;63.90;;;;;;5101246;28;20147;-39
2023/10/22 05:54:53;;;;;;;2.40;2.20;;;19.70;63.90;;;;;;5102564;28;20039;-39
2023/10/22 05:57:21;;;;;;;2.63;1.97;;;19.70;64.10;;;;;;5097428;28;20028;-40
2023/10/22 05:59:47;;;;;;;3.08;1.98;;;19.80;64.70;;;;;;5101899;28;20035;-40
2023/10/22 06:02:13;;;;;;;3.35;1.67;;;19.90;65.00;;;;;;5097719;28;20039;-39
2023/10/22 06:04:39;;;;;;;2.03;1.80;;;19.90;64.80;;;;;;5095425;28;20039;-40
2023/10/22 06:07:07;;;;;;;2.90;2.10;;;19.90;64.70;;;;;;5091402;28;20066;-39
2023/10/22 06:09:35;;;;;;;1.92;1.73;;;19.90;64.80;;;;;;5096400;28;20037;-39
2023/10/22 06:12:02;;;;;;;2.42;1.60;;;19.90;64.80;;;;;;5104274;28;20028;-38
2023/10/22 06:14:28;;;;;;;2.00;1.80;;;19.80;64.60;;;;;;5103620;28;20032;-39
2023/10/22 06:16:54;;;;;;;1.90;1.75;;;19.80;64.60;;;;;;5103516;28;20111;-39
2023/10/22 06:19:20;;;;;;;2.05;1.80;;;19.80;64.60;;;;;;5095956;28;20393;-40
2023/10/22 06:21:46;;;;;;;2.03;1.83;;;19.80;64.60;;;;;;5086789;28;20054;-40
2023/10/22 06:24:12;;;;;;;2.15;1.83;;;19.80;64.90;;;;;;5098099;28;20042;-40
2023/10/22 06:26:40;;;;;;;2.00;1.83;;;19.90;65.40;;;;;;5094936;28;20024;-40
2023/10/22 06:29:06;;;;;;;2.67;1.90;;;19.90;65.50;;;;;;5090271;28;20074;-40
2023/10/22 06:31:32;;;;;;;1.83;1.63;;;20.00;65.30;;;;;;5102725;28;20040;-39
2023/10/22 06:33:58;;;;;;;1.95;1.70;;;19.90;65.20;;;;;;5103043;28;20035;-40
2023/10/22 06:36:25;;;;;;;1.98;1.77;;;19.90;65.70;;;;;;5102752;28;20062;-40
2023/10/22 06:38:51;;;;;;;1.70;1.50;;;19.90;65.20;;;;;;5103700;28;20036;-40
2023/10/22 06:41:20;;;;;;;2.03;1.83;;;19.90;65.10;;;;;;5090507;28;20028;-40
2023/10/22 06:43:47;;;;;;;3.75;2.00;;;19.80;65.00;;;;;;5102373;28;20058;-40
2023/10/22 06:46:14;;;;;;;1.80;1.70;;;19.80;65.00;;;;;;5103051;28;20046;-39
2023/10/22 06:48:41;;;;;;;2.10;1.80;;;19.80;65.00;;;;;;5101419;28;20857;-40
2023/10/22 06:51:10;;;;;;;2.60;1.95;;;19.80;65.00;;;;;;5098166;28;20036;-40
2023/10/22 06:53:39;;;;;;;1.90;1.70;;;19.90;65.50;;;;;;5094839;28;20048;-40
2023/10/22 06:56:06;;;;;;;1.95;1.70;;;19.90;65.70;;;;;;5090935;28;20030;-40
2023/10/22 06:58:32;;;;;;;2.13;1.55;;;19.90;65.50;;;;;;5101344;28;20047;-40
2023/10/22 07:01:09;;;;;;;2.10;1.58;;;19.90;65.40;;;;;;5085044;28;20029;-40
2023/10/22 07:03:35;;;;;;;1.88;1.67;;;19.90;66.10;;;;;;5092048;28;20039;-39
2023/10/22 07:06:02;;;;;;;2.13;1.85;;;19.90;65.40;;;;;;5102287;28;20024;-40
2023/10/22 07:08:28;;;;;;;1.98;1.80;;;19.90;65.30;;;;;;5098445;28;20129;-40
2023/10/22 07:10:55;;;;;;;1.90;1.75;;;19.80;65.30;;;;;;5091088;28;20032;-39
2023/10/22 07:13:22;;;;;;;1.95;1.80;;;19.80;65.30;;;;;;5093031;28;20092;-39
2023/10/22 07:15:48;;;;;;;2.45;1.80;;;19.80;65.40;;;;;;5093592;28;20060;-39
2023/10/22 07:18:15;;;;;;;1.90;1.70;;;19.90;65.90;;;;;;5094789;28;20403;-39
2023/10/22 07:20:41;;;;;;;1.90;1.70;;;19.90;65.90;;;;;;5091757;28;20024;-40
2023/10/22 07:23:07;;;;;;;1.55;1.45;;;19.90;65.70;;;;;;5095833;28;20034;-39
2023/10/22 07:25:34;;;;;;;3.47;1.60;;;19.90;65.60;;;;;;5087615;28;20032;-40
2023/10/22 07:28:00;;;;;;;1.75;1.60;;;19.90;65.50;;;;;;5091318;28;20031;-39
2023/10/22 07:30:26;;;;;;;3.40;1.70;;;19.90;65.60;;;;;;5092475;28;20036;-39
2023/10/22 07:32:53;;;;;;;2.20;1.80;;;19.90;65.50;;;;;;5084956;28;20037;-39
2023/10/22 07:35:20;;;;;;;1.67;1.58;;;19.90;65.50;;;;;;5090061;28;20044;-39
2023/10/22 07:37:46;;;;;;;1.70;1.30;;;19.90;65.40;;;;;;5084378;28;20073;-40
2023/10/22 07:40:17;;;;;;;1.48;1.38;;;19.90;65.80;;;;;;5085519;28;20035;-39
2023/10/22 07:42:44;;;;;;;1.83;1.67;;;19.90;66.00;;;;;;5093955;28;20052;-39
2023/10/22 07:45:10;;;;;;;1.90;1.70;;;20.00;66.00;;;;;;5090017;28;20036;-39
2023/10/22 07:47:37;;;;;;;2.17;1.50;;;20.00;65.80;;;;;;5102238;28;20062;-39
2023/10/22 07:50:04;;;;;;;1.58;1.48;;;19.90;65.70;;;;;;5086087;28;20080;-39
2023/10/22 07:52:30;;;;;;;;;;;19.90;65.70;;;;;;5094842;28;20029;-39
2023/10/22 07:54:56;;;;;;;2.03;1.58;;;19.90;65.70;;;;;;5084875;28;19912;-39
2023/10/22 07:57:23;;;;;;;1.73;1.63;;;19.90;65.60;;;;;;5092028;28;20127;-40
2023/10/22 07:59:49;;;;;;;1.70;1.60;;;19.90;65.60;;;;;;5098564;28;20489;-40
2023/10/22 08:02:15;;;;;;;1.88;1.42;;;19.90;65.60;;;;;;5096966;28;20047;-39
2023/10/22 08:04:41;;;;;;;2.03;1.30;;;19.90;65.90;;;;;;5093002;28;20088;-40
2023/10/22 08:07:07;;;;;;;1.33;1.23;;;19.90;66.00;;;;;;5091402;28;20134;-40
2023/10/22 08:09:33;;;;;;;2.00;1.58;;;20.00;66.10;;;;;;5091260;28;20033;-40
2023/10/22 08:12:00;;;;;;;1.70;1.60;;;20.00;65.90;;;;;;5084211;28;20024;-40
2023/10/22 08:14:26;;;;;;;1.60;1.50;;;20.00;65.80;;;;;;5091186;28;20091;-40
2023/10/22 08:16:52;;;;;;;1.55;1.40;;;19.90;65.80;;;;;;5092311;28;20087;-40
2023/10/22 08:19:18;;;;;;;2.05;1.75;;;19.90;65.70;;;;;;5097751;28;20054;-40
2023/10/22 08:21:44;;;;;;;1.70;1.60;;;19.90;65.70;;;;;;5092665;28;20706;-40
2023/10/22 08:24:10;;;;;;;2.08;1.65;;;19.90;65.70;;;;;;5089545;28;20044;-40
2023/10/22 08:26:38;;;;;;;2.25;1.63;;;19.90;65.70;;;;;;5093999;28;20037;-40
2023/10/22 08:29:05;;;;;;;1.73;1.40;;;19.80;65.60;;;;;;5096917;28;20028;-39
2023/10/22 08:31:32;;;;;;;1.55;1.45;;;19.90;66.00;;;;;;5093062;28;20060;-39
2023/10/22 08:33:58;;;;;;;1.58;1.25;;;20.00;66.30;;;;;;5085282;28;20078;-40
2023/10/22 08:36:24;;;;;;;1.60;1.50;;;20.00;66.20;;;;;;5086518;28;20036;-39
2023/10/22 08:38:50;;;;;;;2.08;1.40;;;20.00;66.00;;;;;;5100209;28;20039;-39
2023/10/22 08:41:23;;;;;;;2.17;1.65;;;20.00;66.00;;;;;;5092850;28;20106;-39
2023/10/22 08:43:49;;;;;;;1.73;1.63;;;20.00;65.90;;;;;;5099976;28;20028;-39
2023/10/22 08:46:16;;;;;;;1.30;1.20;;;19.90;65.80;;;;;;5098185;28;20017;-39
2023/10/22 08:48:42;;;;;;;1.70;1.60;;;20.00;65.80;;;;;;5098931;28;20028;-39
2023/10/22 08:51:08;;;;;;;1.63;1.40;;;19.90;65.70;;;;;;5095137;28;20273;-40
2023/10/22 08:53:35;;;;;;;1.50;1.38;;;19.90;66.00;;;;;;5098212;28;20036;-40
2023/10/22 08:56:04;;;;;;;1.55;1.45;;;20.00;66.20;;;;;;5091161;28;20124;-39
2023/10/22 08:58:30;;;;;;;2.22;1.73;;;20.00;66.10;;;;;;5085428;28;20036;-39
2023/10/22 09:00:57;;;;;;;1.65;1.52;;;20.00;66.00;;;;;;5084192;28;20025;-39
2023/10/22 09:03:26;;;;;;;1.50;1.30;;;20.00;65.90;;;;;;5095980;28;20087;-39
2023/10/22 09:05:53;;;;;;;1.55;1.35;;;20.00;65.90;;;;;;5085379;28;20028;-39
2023/10/22 09:08:19;;;;;;;;;;;20.00;65.90;;;;;;5097406;28;20064;-40
2023/10/22 09:10:45;;;;;;;2.03;1.83;;;19.90;65.80;;;;;;5092366;28;19927;-39
2023/10/22 09:13:25;;;;;;;1.88;1.58;;;20.00;65.80;;;;;;5093214;28;20096;-39
2023/10/22 09:15:54;;;;;;;2.00;1.73;;;19.90;65.70;;;;;;5095585;28;20100;-39
2023/10/22 09:18:20;;;;;;;1.55;1.40;;;19.90;65.80;;;;;;5093538;28;20036;-39
2023/10/22 09:20:46;;;;;;;1.45;1.35;;;20.00;66.10;;;;;;5095506;28;20025;-39
2023/10/22 09:23:22;;;;;;;1.73;1.47;;;20.00;66.20;;;;;;5092990;28;20036;-39
2023/10/22 09:25:50;;;;;;;1.40;1.30;;;20.00;66.00;;;;;;5099810;28;20024;-39
2023/10/22 09:28:20;;;;;;;1.80;1.42;;;20.00;66.00;;;;;;5093182;28;20047;-40
2023/10/22 09:30:47;;;;;;;1.60;1.50;;;20.00;65.90;;;;;;5091935;28;20058;-40
2023/10/22 09:33:17;;;;;;;2.03;1.65;;;20.00;65.90;;;;;;5082626;28;20024;-39
2023/10/22 09:35:43;;;;;;;1.73;1.60;;;19.90;65.80;;;;;;5084790;28;20037;-38
2023/10/22 09:38:10;;;;;;;2.10;1.70;;;19.90;65.80;;;;;;5092161;28;20036;-39
2023/10/22 09:40:36;;;;;;;2.95;1.50;;;19.90;65.80;;;;;;5099957;28;20028;-39
2023/10/22 09:43:03;;;;;;;1.65;1.50;;;20.00;66.10;;;;;;5094406;28;20072;-39
2023/10/22 09:45:29;;;;;;;1.83;1.30;;;20.00;66.20;;;;;;5097230;28;20054;-39
2023/10/22 09:47:56;;;;;;;1.52;1.42;;;20.10;66.10;;;;;;5093350;28;20036;-39
2023/10/22 09:50:22;;;;;;;1.75;1.42;;;20.10;66.10;;;;;;5098855;28;20047;-39
2023/10/22 09:52:50;;;;;;;1.70;1.50;;;20.00;66.00;;;;;;5099184;28;20551;-39
2023/10/22 09:55:17;;;;;;;1.50;1.40;;;20.00;66.00;;;;;;5083381;28;20025;-39
2023/10/22 09:57:45;;;;;;;1.77;1.50;;;20.00;65.90;;;;;;5083607;28;20048;-39
2023/10/22 10:00:15;;;;;;;1.80;1.38;;;20.00;65.90;;;;;;5082737;28;20036;-39
2023/10/22 10:02:41;;;;;;;1.30;1.20;;;19.90;65.80;;;;;;5097654;28;20028;-39
2023/10/22 10:05:11;;;;;;;1.47;1.27;;;19.90;65.70;;;;;;5087119;28;20029;-39
2023/10/22 10:07:40;;;;;;;2.03;1.33;;;20.00;66.20;;;;;;5095787;28;20291;-39
2023/10/22 10:10:07;;;;;;;1.65;1.42;;;20.10;66.30;;;;;;5091017;28;20024;-39
2023/10/22 10:12:38;;;;;;;1.80;1.58;;;20.10;66.20;;;;;;5094829;28;20052;-39
2023/10/22 10:15:04;;;;;;;1.85;1.30;;;20.10;66.10;;;;;;5075606;28;20064;-40
2023/10/22 10:17:31;;;;;;;1.73;1.60;;;20.00;66.10;;;;;;5087249;28;20066;-39
2023/10/22 10:20:27;;;;;;;3.42;1.85;;;20.00;66.10;;;;;;5093851;28;20024;-39
2023/10/22 10:23:12;;;;;;;1.83;1.67;;;20.00;66.10;;;;;;5093392;28;20096;-40
2023/10/22 10:25:39;;;;;;;2.30;1.60;;;20.00;66.00;;;;;;5094552;28;20047;-39
2023/10/22 10:28:09;;;;;;;1.45;1.35;;;19.90;65.90;;;;;;5093612;28;20031;-39
2023/10/22 10:30:35;;;;;;;1.60;1.50;;;19.90;65.90;;;;;;5092866;28;20057;-39
2023/10/22 10:33:02;;;;;;;1.40;1.30;;;20.00;66.30;;;;;;5093529;28;20025;-39
2023/10/22 10:35:28;;;;;;;1.30;1.20;;;20.10;66.50;;;;;;5094796;28;20031;-39
2023/10/22 10:38:13;;;;;;;1.70;1.35;;;20.10;66.30;;;;;;5088859;28;20618;-39
2023/10/22 10:40:46;;;;;;;2.40;1.73;;;20.10;66.20;;;;;;5096113;28;20079;-39
2023/10/22 10:43:12;;;;;;;1.80;1.20;;;20.10;66.20;;;;;;5103975;28;20817;-39
2023/10/22 10:45:43;;;;;;;1.70;1.52;;;20.00;66.10;;;;;;5101544;28;20028;-40
2023/10/22 10:48:51;;;;;;;1.55;1.45;;;20.00;66.10;;;;;;5102527;28;20043;-40
2023/10/22 10:51:21;;;;;;;1.40;1.30;;;20.00;66.10;;;;;;5097546;28;20505;-40
2023/10/22 10:54:07;;;;;;;1.60;1.50;;;20.00;66.10;;;;;;5101714;28;20035;-40
2023/10/22 10:56:52;;;;;;;1.50;1.25;;;19.90;66.10;;;;;;5095562;28;20083;-40
2023/10/22 10:59:26;;;;;;;1.77;1.30;;;20.00;66.50;;;;;;5095142;28;20032;-40
2023/10/22 11:02:09;;;;;;;1.98;1.42;;;20.10;66.50;;;;;;5096846;28;20132;-40
2023/10/22 11:04:37;;;;;;;1.35;1.25;;;20.10;66.40;;;;;;5098581;28;20052;-40
2023/10/22 11:07:04;;;;;;;1.40;1.30;;;20.10;66.30;;;;;;5101871;28;20028;-40
2023/10/22 11:09:33;;;;;;;1.80;1.38;;;20.10;66.30;;;;;;5094370;28;20032;-40
2023/10/22 11:12:03;;;;;;;1.55;1.45;;;20.00;66.20;;;;;;5096694;28;20024;-40
2023/10/22 11:14:34;;;;;;;1.48;1.38;;;20.00;66.20;;;;;;5092435;28;20035;-40
2023/10/22 11:17:00;;;;;;;1.50;1.40;;;20.00;66.10;;;;;;5085176;28;20396;-40
2023/10/22 11:19:30;;;;;;;1.73;1.23;;;20.00;66.10;;;;;;5090918;28;20052;-40
2023/10/22 11:21:57;;;;;;;1.38;1.20;;;20.00;66.10;;;;;;5102119;28;20032;-40
2023/10/22 11:24:33;;;;;;;1.27;1.17;;;20.00;66.40;;;;;;5096188;28;20127;-40
2023/10/22 11:27:01;;;;;;;1.30;1.20;;;20.10;66.50;;;;;;5085311;28;20033;-40
2023/10/22 11:29:27;;;;;;;2.15;1.60;;;20.10;66.50;;;;;;5097489;28;20364;-40
2023/10/22 11:31:55;;;;;;;2.03;1.40;;;20.10;66.40;;;;;;5094308;28;20030;-40
2023/10/22 11:34:22;;;;;;;2.13;1.30;;;20.10;66.40;;;;;;5098031;28;20036;-40
2023/10/22 11:36:48;;;;;;;1.50;1.40;;;20.00;66.30;;;;;;5099969;28;20131;-40
2023/10/22 11:39:20;;;;;;;1.65;1.50;;;20.00;66.30;;;;;;5095941;28;20045;-40
2023/10/22 11:41:46;;;;;;;1.52;1.42;;;20.00;66.20;;;;;;5090333;28;20766;-40
2023/10/22 11:44:32;;;;;;;1.73;1.50;;;20.00;66.20;;;;;;5098471;28;20075;-40
2023/10/22 11:46:59;;;;;;;1.40;1.27;;;20.00;66.40;;;;;;5090956;28;20024;-40
2023/10/22 11:49:25;;;;;;;;;;;20.10;66.70;;;;;;5092314;28;20040;-40
2023/10/22 11:51:51;;;;;;;1.42;1.33;;;20.10;66.50;;;;;;5102801;28;19912;-40
2023/10/22 11:54:17;;;;;;;1.65;1.27;;;20.10;66.50;;;;;;5096033;28;20029;-40
2023/10/22 11:56:43;;;;;;;1.65;1.45;;;20.10;66.40;;;;;;5083918;28;20106;-40
2023/10/22 11:59:10;;;;;;;1.30;1.20;;;20.10;66.40;;;;;;5088602;28;20048;-40
2023/10/22 12:01:36;;;;;;;1.50;1.40;;;20.00;66.30;;;;;;5096056;28;20016;-40
2023/10/22 12:04:03;;;;;;;1.50;1.30;;;20.00;66.30;;;;;;5101366;28;20028;-40
2023/10/22 12:06:29;;;;;;;;;;;20.00;66.30;;;;;;5086651;28;20172;-40
2023/10/22 12:08:55;;;;;;;1.23;1.10;;;19.90;66.20;;;;;;5094681;28;19912;-39
2023/10/22 12:11:22;;;;;;;1.85;1.48;;;20.00;66.50;;;;;;5088721;28;20568;-39
2023/10/22 12:13:48;;;;;;;1.50;1.40;;;20.10;66.60;;;;;;5100113;28;20052;-39
2023/10/22 12:16:14;;;;;;;1.35;1.25;;;20.10;66.60;;;;;;5083769;28;20055;-39
2023/10/22 12:18:40;;;;;;;1.90;1.40;;;20.10;66.50;;;;;;5090099;28;20044;-39
2023/10/22 12:21:06;;;;;;;1.30;1.20;;;20.10;66.70;;;;;;5083861;28;20036;-39
2023/10/22 12:23:32;;;;;;;1.45;1.35;;;20.10;66.50;;;;;;5083588;28;20154;-39
2023/10/22 12:25:59;;;;;;;1.45;1.33;;;20.00;66.40;;;;;;5085361;28;20043;-39
2023/10/22 12:28:28;;;;;;;1.95;1.70;;;20.00;66.30;;;;;;5100019;28;20047;-39
2023/10/22 12:30:54;;;;;;;1.48;1.35;;;20.00;66.30;;;;;;5084692;28;20032;-39
2023/10/22 12:33:20;;;;;;;1.88;1.50;;;20.00;66.30;;;;;;5084195;28;20448;-39
2023/10/22 12:35:46;;;;;;;1.55;1.35;;;20.00;66.60;;;;;;5095387;28;20020;-39
2023/10/22 12:38:13;;;;;;;1.42;1.30;;;20.10;66.70;;;;;;5090096;28;20051;-39
2023/10/22 12:40:39;;;;;;;1.40;1.30;;;20.10;66.60;;;;;;5084306;28;20134;-40
2023/10/22 12:43:05;;;;;;;1.65;1.33;;;20.10;66.50;;;;;;5087716;28;20082;-39
2023/10/22 12:45:31;;;;;;;1.52;1.40;;;20.10;66.50;;;;;;5093474;28;20473;-39
2023/10/22 12:47:57;;;;;;;1.50;1.40;;;20.10;66.40;;;;;;5093955;28;20036;-39